sensor_id;sensor_type;location;lat;lon;timestamp;temperature;humidity
39099;DHT22;24844;52.380;7.018;2024-02-26T13:44:20;7.40;99.90
39099;DHT22;24844;52.380;7.018;2024-02-26T13:46:47;7.30;99.90
39099;DHT22;24844;52.380;7.018;2024-02-26T13:49:13;7.30;99.90
39099;DHT22;24844;52.380;7.018;2024-02-26T13:51:39;7.30;99.90
39099;DHT22;24844;52.380;7.018;2024-02-26T13:54:05;7.30;99.90
39099;DHT22;24844;52.380;7.018;2024-02-26T13:56:31;7.30;99.90
39099;DHT22;24844;52.380;7.018;2024-02-26T13:58:57;7.50;99.90
39099;DHT22;24844;52.380;7.018;2024-02-26T14:01:23;7.40;99.90
39099;DHT22;24844;52.380;7.018;2024-02-26T14:03:49;7.50;99.90
39099;DHT22;24844;52.380;7.018;2024-02-26T14:06:15;7.50;99.90
39099;DHT22;24844;52.380;7.018;2024-02-26T15:42:42;7.70;99.90
39099;DHT22;24844;52.380;7.018;2024-02-26T15:52:28;7.50;99.90
39099;DHT22;24844;52.380;7.018;2024-02-26T16:02:18;7.40;99.90
39099;DHT22;24844;52.380;7.018;2024-02-26T16:04:43;7.40;99.90
39099;DHT22;24844;52.380;7.018;2024-02-26T16:07:18;7.30;99.90
39099;DHT22;24844;52.380;7.018;2024-02-26T16:31:59;7.00;99.90
39099;DHT22;24844;52.380;7.018;2024-02-26T16:39:18;7.00;99.90
39099;DHT22;24844;52.380;7.018;2024-02-26T16:44:11;6.90;99.90
39099;DHT22;24844;52.380;7.018;2024-02-26T16:49:03;7.10;99.90
39099;DHT22;24844;52.380;7.018;2024-02-26T16:51:29;7.10;99.90
39099;DHT22;24844;52.380;7.018;2024-02-26T16:53:55;6.90;99.90
39099;DHT22;24844;52.380;7.018;2024-02-26T16:56:20;7.00;99.90
39099;DHT22;24844;52.380;7.018;2024-02-26T16:58:46;6.60;99.90
39099;DHT22;24844;52.380;7.018;2024-02-26T17:01:11;6.70;99.90
39099;DHT22;24844;52.380;7.018;2024-02-26T17:06:07;6.60;99.90
39099;DHT22;24844;52.380;7.018;2024-02-26T17:08:33;6.80;99.90
39099;DHT22;24844;52.380;7.018;2024-02-26T17:15:54;6.90;99.90
39099;DHT22;24844;52.380;7.018;2024-02-26T17:18:20;7.00;99.90
39099;DHT22;24844;52.380;7.018;2024-02-26T17:20:46;6.70;99.90
39099;DHT22;24844;52.380;7.018;2024-02-26T17:25:39;6.50;99.90
39099;DHT22;24844;52.380;7.018;2024-02-26T17:28:04;6.50;99.90
39099;DHT22;24844;52.380;7.018;2024-02-26T17:37:50;6.50;99.90
39099;DHT22;24844;52.380;7.018;2024-02-26T17:55:02;6.50;99.90
39099;DHT22;24844;52.380;7.018;2024-02-26T17:57:28;6.70;99.90
39099;DHT22;24844;52.380;7.018;2024-02-26T18:02:20;6.40;99.90
39099;DHT22;24844;52.380;7.018;2024-02-26T18:07:12;6.90;99.90
39099;DHT22;24844;52.380;7.018;2024-02-26T18:09:38;6.70;99.90
39099;DHT22;24844;52.380;7.018;2024-02-26T18:12:04;6.60;99.90
39099;DHT22;24844;52.380;7.018;2024-02-26T18:14:30;6.50;99.90
39099;DHT22;24844;52.380;7.018;2024-02-26T18:19:23;6.10;99.90
39099;DHT22;24844;52.380;7.018;2024-02-26T18:21:49;6.50;99.90
39099;DHT22;24844;52.380;7.018;2024-02-26T18:29:10;6.50;99.90
39099;DHT22;24844;52.380;7.018;2024-02-26T18:31:36;6.50;99.90
39099;DHT22;24844;52.380;7.018;2024-02-26T18:34:02;6.50;99.90
39099;DHT22;24844;52.380;7.018;2024-02-26T18:36:28;6.50;99.90
39099;DHT22;24844;52.380;7.018;2024-02-26T18:38:53;6.40;99.90
39099;DHT22;24844;52.380;7.018;2024-02-26T18:41:20;6.70;99.90
39099;DHT22;24844;52.380;7.018;2024-02-26T18:43:52;6.70;99.90
39099;DHT22;24844;52.380;7.018;2024-02-26T18:46:17;6.60;99.90
39099;DHT22;24844;52.380;7.018;2024-02-26T18:48:43;6.60;99.90
39099;DHT22;24844;52.380;7.018;2024-02-26T18:51:10;6.20;99.90
39099;DHT22;24844;52.380;7.018;2024-02-26T18:53:39;6.20;99.90
39099;DHT22;24844;52.380;7.018;2024-02-26T18:56:07;6.60;99.90
39099;DHT22;24844;52.380;7.018;2024-02-26T18:58:33;6.50;99.90
39099;DHT22;24844;52.380;7.018;2024-02-26T19:00:58;6.40;99.90
39099;DHT22;24844;52.380;7.018;2024-02-26T19:03:24;6.20;99.90
39099;DHT22;24844;52.380;7.018;2024-02-26T19:05:50;6.40;99.90
39099;DHT22;24844;52.380;7.018;2024-02-26T19:08:15;6.40;99.90
39099;DHT22;24844;52.380;7.018;2024-02-26T19:10:41;6.50;99.90
39099;DHT22;24844;52.380;7.018;2024-02-26T19:13:07;6.50;99.90
39099;DHT22;24844;52.380;7.018;2024-02-26T19:15:33;6.30;99.90
39099;DHT22;24844;52.380;7.018;2024-02-26T19:17:59;6.40;99.90
39099;DHT22;24844;52.380;7.018;2024-02-26T19:20:26;6.50;99.90
39099;DHT22;24844;52.380;7.018;2024-02-26T19:22:52;6.30;99.90
39099;DHT22;24844;52.380;7.018;2024-02-26T19:25:19;6.30;99.90
39099;DHT22;24844;52.380;7.018;2024-02-26T19:27:45;6.00;99.90
39099;DHT22;24844;52.380;7.018;2024-02-26T19:30:11;6.10;99.90
39099;DHT22;24844;52.380;7.018;2024-02-26T19:32:37;6.60;99.90
39099;DHT22;24844;52.380;7.018;2024-02-26T19:35:02;6.50;99.90
39099;DHT22;24844;52.380;7.018;2024-02-26T19:37:28;6.50;99.90
39099;DHT22;24844;52.380;7.018;2024-02-26T19:42:27;6.30;99.90
39099;DHT22;24844;52.380;7.018;2024-02-26T19:44:53;6.30;99.90
39099;DHT22;24844;52.380;7.018;2024-02-26T19:47:19;6.40;99.90
39099;DHT22;24844;52.380;7.018;2024-02-26T19:49:45;6.20;99.90
39099;DHT22;24844;52.380;7.018;2024-02-26T19:52:11;6.40;99.90
39099;DHT22;24844;52.380;7.018;2024-02-26T19:54:37;5.90;99.90
39099;DHT22;24844;52.380;7.018;2024-02-26T19:57:03;6.10;99.90
39099;DHT22;24844;52.380;7.018;2024-02-26T19:59:31;6.30;99.90
39099;DHT22;24844;52.380;7.018;2024-02-26T20:01:57;6.50;99.90
39099;DHT22;24844;52.380;7.018;2024-02-26T20:04:22;6.40;99.90
39099;DHT22;24844;52.380;7.018;2024-02-26T20:06:48;6.50;99.90
39099;DHT22;24844;52.380;7.018;2024-02-26T20:09:14;6.20;99.90
39099;DHT22;24844;52.380;7.018;2024-02-26T20:11:40;6.30;99.90
39099;DHT22;24844;52.380;7.018;2024-02-26T20:14:06;6.30;99.90
39099;DHT22;24844;52.380;7.018;2024-02-26T20:16:34;6.00;99.90
39099;DHT22;24844;52.380;7.018;2024-02-26T20:19:00;6.10;99.90
39099;DHT22;24844;52.380;7.018;2024-02-26T20:21:25;6.30;99.90
39099;DHT22;24844;52.380;7.018;2024-02-26T20:23:51;6.10;99.90
39099;DHT22;24844;52.380;7.018;2024-02-26T20:26:16;6.10;99.90
39099;DHT22;24844;52.380;7.018;2024-02-26T20:28:43;6.00;99.90
39099;DHT22;24844;52.380;7.018;2024-02-26T20:31:08;6.30;99.90
39099;DHT22;24844;52.380;7.018;2024-02-26T20:33:34;6.20;99.90
39099;DHT22;24844;52.380;7.018;2024-02-26T20:36:01;6.10;99.90
39099;DHT22;24844;52.380;7.018;2024-02-26T20:38:27;6.00;99.90
39099;DHT22;24844;52.380;7.018;2024-02-26T20:40:53;6.00;99.90
39099;DHT22;24844;52.380;7.018;2024-02-26T20:43:19;6.10;99.90
39099;DHT22;24844;52.380;7.018;2024-02-26T20:45:45;6.10;99.90
39099;DHT22;24844;52.380;7.018;2024-02-26T20:48:15;6.00;99.90
39099;DHT22;24844;52.380;7.018;2024-02-26T20:50:41;6.10;99.90
39099;DHT22;24844;52.380;7.018;2024-02-26T20:53:07;6.10;99.90
39099;DHT22;24844;52.380;7.018;2024-02-26T20:55:35;6.00;99.90
39099;DHT22;24844;52.380;7.018;2024-02-26T20:58:01;6.10;99.90
39099;DHT22;24844;52.380;7.018;2024-02-26T21:00:26;6.10;99.90
39099;DHT22;24844;52.380;7.018;2024-02-26T21:02:52;6.20;99.90
39099;DHT22;24844;52.380;7.018;2024-02-26T21:05:17;6.10;99.90
39099;DHT22;24844;52.380;7.018;2024-02-26T21:07:43;6.10;99.90
39099;DHT22;24844;52.380;7.018;2024-02-26T21:10:08;5.80;99.90
39099;DHT22;24844;52.380;7.018;2024-02-26T21:12:34;5.90;99.90
39099;DHT22;24844;52.380;7.018;2024-02-26T21:15:00;6.00;99.90
39099;DHT22;24844;52.380;7.018;2024-02-26T21:17:26;5.80;99.90
39099;DHT22;24844;52.380;7.018;2024-02-26T21:19:52;6.10;99.90
39099;DHT22;24844;52.380;7.018;2024-02-26T21:22:18;6.20;99.90
39099;DHT22;24844;52.380;7.018;2024-02-26T21:24:43;6.10;99.90
39099;DHT22;24844;52.380;7.018;2024-02-26T21:27:09;5.80;99.90
39099;DHT22;24844;52.380;7.018;2024-02-26T21:29:36;6.00;99.90
39099;DHT22;24844;52.380;7.018;2024-02-26T21:32:02;6.00;99.90
39099;DHT22;24844;52.380;7.018;2024-02-26T21:34:28;6.00;99.90
39099;DHT22;24844;52.380;7.018;2024-02-26T21:36:53;5.90;99.90
39099;DHT22;24844;52.380;7.018;2024-02-26T21:39:19;5.90;99.90
39099;DHT22;24844;52.380;7.018;2024-02-26T21:44:12;5.50;99.90
39099;DHT22;24844;52.380;7.018;2024-02-26T21:46:39;5.90;99.90
39099;DHT22;24844;52.380;7.018;2024-02-26T21:49:08;6.00;99.90
39099;DHT22;24844;52.380;7.018;2024-02-26T21:51:43;5.80;99.90
39099;DHT22;24844;52.380;7.018;2024-02-26T21:54:11;5.80;99.90
39099;DHT22;24844;52.380;7.018;2024-02-26T21:56:38;5.70;99.90
39099;DHT22;24844;52.380;7.018;2024-02-26T21:59:03;5.80;99.90
39099;DHT22;24844;52.380;7.018;2024-02-26T22:01:29;5.60;99.90
39099;DHT22;24844;52.380;7.018;2024-02-26T22:03:54;5.60;99.90
39099;DHT22;24844;52.380;7.018;2024-02-26T22:06:20;5.90;99.90
39099;DHT22;24844;52.380;7.018;2024-02-26T22:08:45;5.70;99.90
39099;DHT22;24844;52.380;7.018;2024-02-26T22:11:11;5.70;99.90
39099;DHT22;24844;52.380;7.018;2024-02-26T22:13:36;5.80;99.90
39099;DHT22;24844;52.380;7.018;2024-02-26T22:16:02;5.70;99.90
39099;DHT22;24844;52.380;7.018;2024-02-26T22:18:28;5.70;99.90
39099;DHT22;24844;52.380;7.018;2024-02-26T22:20:53;5.90;99.90
39099;DHT22;24844;52.380;7.018;2024-02-26T22:23:19;5.60;99.90
39099;DHT22;24844;52.380;7.018;2024-02-26T22:25:45;5.60;99.90
39099;DHT22;24844;52.380;7.018;2024-02-26T22:28:11;5.70;99.90
39099;DHT22;24844;52.380;7.018;2024-02-26T22:30:37;5.60;99.90
39099;DHT22;24844;52.380;7.018;2024-02-26T22:33:03;5.50;99.90
39099;DHT22;24844;52.380;7.018;2024-02-26T22:35:29;5.20;99.90
39099;DHT22;24844;52.380;7.018;2024-02-26T22:37:54;5.50;99.90
39099;DHT22;24844;52.380;7.018;2024-02-26T22:40:20;5.30;99.90
39099;DHT22;24844;52.380;7.018;2024-02-26T22:42:46;5.20;99.90
39099;DHT22;24844;52.380;7.018;2024-02-26T22:45:12;5.10;99.90
39099;DHT22;24844;52.380;7.018;2024-02-26T22:47:40;5.10;99.90
39099;DHT22;24844;52.380;7.018;2024-02-26T22:50:06;4.90;99.90
39099;DHT22;24844;52.380;7.018;2024-02-26T22:52:33;5.00;99.90
39099;DHT22;24844;52.380;7.018;2024-02-26T22:54:59;5.00;99.90
39099;DHT22;24844;52.380;7.018;2024-02-26T22:57:24;5.00;99.90
39099;DHT22;24844;52.380;7.018;2024-02-26T22:59:50;5.20;99.90
39099;DHT22;24844;52.380;7.018;2024-02-26T23:02:16;5.20;99.90
39099;DHT22;24844;52.380;7.018;2024-02-26T23:04:42;5.20;99.90
39099;DHT22;24844;52.380;7.018;2024-02-26T23:07:08;4.80;99.90
39099;DHT22;24844;52.380;7.018;2024-02-26T23:09:33;4.70;99.90
39099;DHT22;24844;52.380;7.018;2024-02-26T23:12:00;4.80;99.90
39099;DHT22;24844;52.380;7.018;2024-02-26T23:14:26;4.90;99.90
39099;DHT22;24844;52.380;7.018;2024-02-26T23:16:51;4.90;99.90
39099;DHT22;24844;52.380;7.018;2024-02-26T23:19:17;4.80;99.90
39099;DHT22;24844;52.380;7.018;2024-02-26T23:21:42;4.70;99.90
39099;DHT22;24844;52.380;7.018;2024-02-26T23:24:08;4.90;99.90
39099;DHT22;24844;52.380;7.018;2024-02-26T23:26:34;5.00;99.90
39099;DHT22;24844;52.380;7.018;2024-02-26T23:28:59;5.00;99.90
39099;DHT22;24844;52.380;7.018;2024-02-26T23:31:25;5.00;99.90
39099;DHT22;24844;52.380;7.018;2024-02-26T23:33:51;5.00;99.90
39099;DHT22;24844;52.380;7.018;2024-02-26T23:36:18;5.10;99.90
39099;DHT22;24844;52.380;7.018;2024-02-26T23:38:43;5.00;99.90
39099;DHT22;24844;52.380;7.018;2024-02-26T23:41:09;5.10;99.90
39099;DHT22;24844;52.380;7.018;2024-02-26T23:43:36;5.30;99.90
39099;DHT22;24844;52.380;7.018;2024-02-26T23:46:01;5.20;99.90
39099;DHT22;24844;52.380;7.018;2024-02-26T23:48:27;5.10;99.90
39099;DHT22;24844;52.380;7.018;2024-02-26T23:50:53;4.80;99.90
39099;DHT22;24844;52.380;7.018;2024-02-26T23:53:18;5.00;99.90
39099;DHT22;24844;52.380;7.018;2024-02-26T23:55:44;5.20;99.90
39099;DHT22;24844;52.380;7.018;2024-02-26T23:58:09;5.10;99.90
